createdAt,value
2023-02-09T00:01:26.932Z,39.13
2023-02-09T00:03:56.128Z,37.73
2023-02-09T00:06:26.455Z,37.53
2023-02-09T00:08:55.045Z,40.10
2023-02-09T00:11:47.514Z,38.00
2023-02-09T00:14:16.931Z,38.23
2023-02-09T00:16:46.962Z,35.43
2023-02-09T00:19:16.347Z,36.73
2023-02-09T00:21:44.892Z,33.73
2023-02-09T00:24:13.537Z,36.07
2023-02-09T00:26:42.775Z,34.03
2023-02-09T00:29:11.524Z,35.53
2023-02-09T00:31:40.390Z,32.13
2023-02-09T00:34:11.494Z,31.53
2023-02-09T00:36:39.822Z,32.70
2023-02-09T00:39:08.595Z,34.03
2023-02-09T00:41:54.850Z,33.60
2023-02-09T00:44:23.510Z,32.93
2023-02-09T00:46:52.243Z,31.97
2023-02-09T00:49:22.447Z,32.13
2023-02-09T00:51:53.285Z,31.10
2023-02-09T00:54:23.147Z,29.27
2023-02-09T00:56:51.637Z,26.73
2023-02-09T00:59:19.943Z,26.70
2023-02-09T01:01:48.699Z,26.83
2023-02-09T01:04:17.133Z,26.27
2023-02-09T01:06:47.784Z,25.90
2023-02-09T01:09:18.049Z,27.23
2023-02-09T01:11:46.389Z,26.27
2023-02-09T01:14:14.833Z,26.53
2023-02-09T01:16:43.461Z,26.20
2023-02-09T01:19:14.274Z,25.57
2023-02-09T01:21:43.310Z,26.23
2023-02-09T01:24:15.660Z,27.57
2023-02-09T01:26:44.292Z,26.43
2023-02-09T01:29:15.008Z,25.47
2023-02-09T01:31:44.340Z,26.50
2023-02-09T01:34:14.980Z,25.57
2023-02-09T01:36:43.939Z,27.47
2023-02-09T01:39:15.129Z,27.10
2023-02-09T01:41:44.790Z,27.60
2023-02-09T01:44:52.727Z,27.00
2023-02-09T01:47:21.468Z,24.83
2023-02-09T01:49:51.894Z,27.53
2023-02-09T01:52:26.103Z,25.40
2023-02-09T01:55:00.762Z,27.00
2023-02-09T01:57:32.916Z,26.17
2023-02-09T02:00:05.667Z,26.70
2023-02-09T02:02:44.232Z,26.77
2023-02-09T02:05:12.956Z,26.13
2023-02-09T02:07:47.537Z,23.97
2023-02-09T02:10:17.311Z,25.80
2023-02-09T02:12:46.275Z,25.23
2023-02-09T02:15:14.776Z,27.50
2023-02-09T02:18:07.526Z,26.77
2023-02-09T02:21:15.096Z,27.27
2023-02-09T02:23:49.553Z,28.93
2023-02-09T02:26:58.132Z,30.43
2023-02-09T02:30:03.817Z,27.07
2023-02-09T02:32:43.288Z,30.93
2023-02-09T02:35:19.250Z,29.10
2023-02-09T02:37:59.206Z,29.47
2023-02-09T02:40:44.332Z,29.10
2023-02-09T02:43:23.712Z,29.97
2023-02-09T02:45:57.834Z,31.47
2023-02-09T02:48:34.563Z,28.40
2023-02-09T02:51:07.262Z,27.67
2023-02-09T02:53:38.706Z,27.77
2023-02-09T02:56:16.563Z,26.93
2023-02-09T02:58:47.282Z,26.97
2023-02-09T03:01:21.230Z,28.40
2023-02-09T03:03:52.700Z,27.50
2023-02-09T03:06:21.210Z,26.87
2023-02-09T03:08:52.522Z,26.20
2023-02-09T03:11:22.940Z,26.40
2023-02-09T03:14:22.422Z,26.43
2023-02-09T03:17:03.593Z,26.50
2023-02-09T03:19:41.263Z,26.00
2023-02-09T03:22:14.772Z,26.57
2023-02-09T03:24:49.281Z,24.80
2023-02-09T03:27:22.947Z,25.50
2023-02-09T03:29:56.074Z,27.03
2023-02-09T03:32:26.113Z,28.70
2023-02-09T03:34:57.145Z,27.27
2023-02-09T03:37:25.673Z,27.03
2023-02-09T03:39:54.189Z,27.67
2023-02-09T03:42:22.566Z,27.33
2023-02-09T03:44:50.990Z,27.17
2023-02-09T03:47:19.437Z,28.77
2023-02-09T03:49:48.031Z,26.27
2023-02-09T03:52:18.410Z,27.03
2023-02-09T03:54:47.849Z,27.40
2023-02-09T03:57:16.176Z,27.63
2023-02-09T03:59:44.667Z,27.80
2023-02-09T04:02:13.290Z,27.77
2023-02-09T04:04:41.673Z,27.20
2023-02-09T04:07:10.474Z,26.70
2023-02-09T04:09:40.274Z,24.83
2023-02-09T04:12:08.940Z,25.23
2023-02-09T04:14:37.316Z,24.43
2023-02-09T04:17:05.769Z,26.10
2023-02-09T04:19:37.105Z,25.97
2023-02-09T04:22:05.551Z,25.87
2023-02-09T04:24:36.059Z,26.53
2023-02-09T04:27:06.672Z,24.90
2023-02-09T04:29:35.072Z,27.70
2023-02-09T04:32:06.778Z,25.73
2023-02-09T04:34:35.080Z,27.13
2023-02-09T04:37:03.495Z,26.63
2023-02-09T04:39:34.591Z,27.07
2023-02-09T04:42:05.093Z,26.73
2023-02-09T04:44:37.732Z,27.37
2023-02-09T04:47:06.123Z,25.13
2023-02-09T04:49:37.205Z,23.57
2023-02-09T04:52:06.295Z,25.17
2023-02-09T04:54:35.142Z,25.40
2023-02-09T04:57:20.720Z,24.67
2023-02-09T04:59:50.448Z,25.13
2023-02-09T05:02:18.819Z,24.50
2023-02-09T05:04:47.148Z,24.10
2023-02-09T05:07:15.794Z,24.70
2023-02-09T05:09:44.199Z,23.93
2023-02-09T05:12:12.630Z,23.93
2023-02-09T05:14:40.901Z,25.77
2023-02-09T05:17:10.765Z,24.77
2023-02-09T05:19:39.052Z,26.07
2023-02-09T05:22:08.360Z,25.13
2023-02-09T05:24:39.175Z,26.27
2023-02-09T05:27:08.495Z,24.70
2023-02-09T05:29:38.714Z,26.47
2023-02-09T05:32:11.664Z,24.47
2023-02-09T05:34:40.290Z,25.37
2023-02-09T05:37:08.757Z,25.57
2023-02-09T05:39:39.898Z,26.47
2023-02-09T05:42:16.429Z,25.03
2023-02-09T05:44:45.968Z,24.13
2023-02-09T05:47:18.035Z,23.23
2023-02-09T05:49:49.052Z,22.60
2023-02-09T05:52:21.139Z,23.07
2023-02-09T05:54:50.311Z,23.60
2023-02-09T05:57:19.618Z,23.53
2023-02-09T05:59:57.237Z,23.93
2023-02-09T06:02:29.818Z,24.13
2023-02-09T06:05:11.487Z,23.73
2023-02-09T06:07:40.048Z,24.77
2023-02-09T06:10:11.761Z,25.33
2023-02-09T06:12:41.366Z,23.37
2023-02-09T06:15:13.897Z,23.30
2023-02-09T06:17:44.106Z,23.77
2023-02-09T06:20:13.517Z,24.27
2023-02-09T06:22:41.879Z,22.03
2023-02-09T06:25:13.647Z,22.07
2023-02-09T06:27:42.110Z,23.17
2023-02-09T06:30:14.484Z,25.47
2023-02-09T06:32:44.408Z,23.93
2023-02-09T06:35:12.804Z,26.13
2023-02-09T06:37:41.429Z,24.60
2023-02-09T06:40:12.835Z,26.00
2023-02-09T06:42:50.325Z,24.60
2023-02-09T22:30:20.781Z,29.80
2023-02-09T22:32:49.237Z,31.27
2023-02-09T22:35:18.176Z,29.10
2023-02-09T22:37:47.063Z,28.97
2023-02-09T22:40:15.770Z,29.57
2023-02-09T22:42:47.118Z,27.17
2023-02-09T22:45:15.737Z,28.53
2023-02-09T22:47:47.587Z,27.27
2023-02-09T22:50:17.015Z,26.27
2023-02-09T22:52:45.838Z,24.77
2023-02-09T22:55:14.255Z,28.67
2023-02-09T22:57:42.580Z,28.10
2023-02-09T23:00:14.428Z,28.17
2023-02-09T23:02:42.898Z,26.90
2023-02-09T23:05:12.612Z,29.23
2023-02-09T23:07:41.821Z,29.33
2023-02-09T23:10:10.581Z,29.47
2023-02-09T23:12:38.881Z,28.60
2023-02-09T23:15:08.252Z,27.30
2023-02-09T23:17:36.555Z,25.87
2023-02-09T23:20:08.280Z,26.57
2023-02-09T23:22:37.964Z,24.93
2023-02-09T23:25:07.857Z,24.33
2023-02-09T23:27:36.207Z,25.37
2023-02-09T23:30:06.016Z,24.77
2023-02-09T23:32:36.457Z,31.00
2023-02-09T23:35:06.577Z,30.43
2023-02-09T23:37:38.138Z,28.53
2023-02-09T23:40:09.078Z,28.17
2023-02-09T23:42:37.513Z,29.03
2023-02-09T23:45:09.394Z,28.30
2023-02-09T23:47:37.829Z,27.17
2023-02-09T23:50:09.449Z,28.97
2023-02-09T23:52:37.902Z,28.70
2023-02-09T23:55:08.571Z,27.37
2023-02-09T23:57:37.178Z,27.10
